createdAt,value
2022-11-15T00:00:32.438Z,10.02
2022-11-15T00:02:59.314Z,9.68
2022-11-15T00:05:26.309Z,9.60
2022-11-15T00:07:55.913Z,9.82
2022-11-15T00:10:23.250Z,8.73
2022-11-15T00:12:50.054Z,8.93
2022-11-15T00:15:16.950Z,8.57
2022-11-15T00:17:43.849Z,8.85
2022-11-15T00:20:11.106Z,9.25
2022-11-15T00:22:37.928Z,9.55
2022-11-15T00:25:05.222Z,14.63
2022-11-15T00:27:32.014Z,14.32
2022-11-15T00:29:58.895Z,13.75
2022-11-15T00:32:25.735Z,12.23
2022-11-15T00:34:52.543Z,11.65
2022-11-15T00:37:19.432Z,11.50
2022-11-15T00:39:46.248Z,10.23
2022-11-15T00:42:13.066Z,10.98
2022-11-15T00:44:39.882Z,9.13
2022-11-15T00:47:06.738Z,9.27
2022-11-15T00:49:33.562Z,9.10
2022-11-15T00:52:00.459Z,8.82
2022-11-15T00:54:27.234Z,9.27
2022-11-15T00:56:54.091Z,8.77
2022-11-15T00:59:20.916Z,8.15
2022-11-15T01:01:47.724Z,7.95
2022-11-15T01:04:15.222Z,8.48
2022-11-15T01:06:42.264Z,7.78
2022-11-15T01:09:09.083Z,7.82
2022-11-15T01:11:35.907Z,8.18
2022-11-15T01:14:02.757Z,8.10
2022-11-15T01:16:29.570Z,6.75
2022-11-15T01:18:56.391Z,7.15
2022-11-15T01:21:23.214Z,7.30
2022-11-15T01:23:50.079Z,7.18
2022-11-15T01:26:17.514Z,7.10
2022-11-15T01:28:44.398Z,6.68
2022-11-15T01:31:19.022Z,7.00
2022-11-15T01:33:46.547Z,6.22
2022-11-15T01:36:16.453Z,6.82
2022-11-15T01:38:43.510Z,6.30
2022-11-15T01:41:18.593Z,6.43
2022-11-15T01:43:45.517Z,6.60
2022-11-15T01:46:34.885Z,6.45
2022-11-15T01:49:15.460Z,6.97
2022-11-15T01:51:42.403Z,6.40
2022-11-15T01:54:16.214Z,6.20
2022-11-15T01:56:53.314Z,6.32
2022-11-15T01:59:20.968Z,6.07
2022-11-15T02:01:47.830Z,6.40
2022-11-15T02:04:18.142Z,5.78
2022-11-15T02:06:45.594Z,6.22
2022-11-15T02:09:12.832Z,6.38
2022-11-15T02:11:39.709Z,5.70
2022-11-15T02:14:07.384Z,5.80
2022-11-15T02:16:42.884Z,5.47
2022-11-15T02:19:14.755Z,5.82
2022-11-15T02:25:08.978Z,6.00
2022-11-15T02:28:17.289Z,5.25
2022-11-15T02:31:19.974Z,5.93
2022-11-15T02:33:55.976Z,5.28
2022-11-15T02:36:53.706Z,5.03
2022-11-15T02:39:31.008Z,5.43
2022-11-15T02:42:29.846Z,5.18
2022-11-15T02:44:58.275Z,4.90
2022-11-15T02:47:25.847Z,5.03
2022-11-15T02:52:28.614Z,5.80
2022-11-15T02:54:56.752Z,5.40
2022-11-15T02:57:48.996Z,5.18
2022-11-15T03:00:17.725Z,5.90
2022-11-15T03:02:58.654Z,4.55
2022-11-15T03:05:44.310Z,5.15
2022-11-15T03:08:37.786Z,4.90
2022-11-15T03:11:13.280Z,4.15
2022-11-15T03:13:55.269Z,4.35
2022-11-15T03:16:43.422Z,4.70
2022-11-15T03:19:28.709Z,4.90
2022-11-15T03:24:26.409Z,4.30
2022-11-15T03:26:55.273Z,4.90
2022-11-15T03:29:26.715Z,4.00
2022-11-15T03:31:58.179Z,4.35
2022-11-15T03:34:41.317Z,4.57
2022-11-15T03:37:08.605Z,4.07
2022-11-15T03:39:35.551Z,4.28
2022-11-15T03:42:17.113Z,4.13
2022-11-15T03:44:50.078Z,4.32
2022-11-15T03:47:28.483Z,4.18
2022-11-15T03:52:33.703Z,4.10
2022-11-15T03:55:02.225Z,4.03
2022-11-15T03:57:29.237Z,4.25
2022-11-15T03:59:56.072Z,4.07
2022-11-15T04:02:22.942Z,3.88
2022-11-15T04:04:49.757Z,4.10
2022-11-15T04:07:16.648Z,4.18
2022-11-15T04:10:02.408Z,3.90
2022-11-15T04:12:36.972Z,4.05
2022-11-15T04:15:09.597Z,3.55
2022-11-15T04:17:39.107Z,3.67
2022-11-15T04:20:26.471Z,3.88
2022-11-15T04:23:12.668Z,3.80
2022-11-15T04:25:39.720Z,3.95
2022-11-15T04:28:06.528Z,3.25
2022-11-15T04:30:33.386Z,3.40
2022-11-15T04:33:00.291Z,4.15
2022-11-15T04:35:27.150Z,3.40
2022-11-15T04:37:54.337Z,3.35
2022-11-15T04:40:21.204Z,3.20
2022-11-15T04:42:47.994Z,3.05
2022-11-15T04:45:14.863Z,3.30
2022-11-15T04:47:44.010Z,3.67
2022-11-15T04:50:13.730Z,3.65
2022-11-15T04:52:45.148Z,3.63
2022-11-15T04:55:12.019Z,2.90
2022-11-15T04:57:39.467Z,3.33
2022-11-15T05:02:55.364Z,2.97
2022-11-15T05:05:22.275Z,3.35
2022-11-15T05:07:49.130Z,2.97
2022-11-15T05:10:16.082Z,3.42
2022-11-15T05:12:42.939Z,2.85
2022-11-15T05:15:10.417Z,2.92
2022-11-15T05:17:37.523Z,3.10
2022-11-15T05:20:04.697Z,2.80
2022-11-15T05:22:31.563Z,3.33
2022-11-15T05:24:58.399Z,3.15
2022-11-15T05:27:25.304Z,3.10
2022-11-15T05:29:52.148Z,2.90
2022-11-15T05:32:19.257Z,3.33
2022-11-15T05:34:46.723Z,3.03
2022-11-15T05:37:14.854Z,2.78
2022-11-15T05:39:41.721Z,3.40
2022-11-15T05:42:11.828Z,2.67
2022-11-15T05:44:41.574Z,2.50
2022-11-15T05:49:38.269Z,2.33
2022-11-15T05:52:06.952Z,2.80
2022-11-15T05:54:34.635Z,2.83
2022-11-15T05:57:01.663Z,2.70
2022-11-15T05:59:31.645Z,2.60
2022-11-15T06:01:58.755Z,2.90
2022-11-15T06:04:25.897Z,2.50
2022-11-15T06:06:52.788Z,2.50
2022-11-15T06:09:19.629Z,2.63
2022-11-15T06:11:46.519Z,2.80
2022-11-15T06:14:13.343Z,2.75
2022-11-15T06:16:40.157Z,2.53
2022-11-15T06:19:08.388Z,2.30
2022-11-15T06:21:35.225Z,2.40
2022-11-15T06:24:02.386Z,2.55
2022-11-15T06:26:29.314Z,2.20
2022-11-15T06:28:56.154Z,2.50
2022-11-15T06:31:23.020Z,2.28
2022-11-15T06:33:50.641Z,2.80
2022-11-15T06:36:18.334Z,2.25
2022-11-15T06:38:46.068Z,2.42
2022-11-15T06:41:14.006Z,2.00
2022-11-15T06:43:41.464Z,1.95
2022-11-15T06:46:08.776Z,2.42
2022-11-15T06:48:36.097Z,2.17
2022-11-15T06:51:04.150Z,2.35
2022-11-15T06:53:31.779Z,2.28
2022-11-15T06:56:06.253Z,2.33
2022-11-15T06:58:33.181Z,2.20
2022-11-15T07:01:08.936Z,2.35
2022-11-15T07:03:37.086Z,2.45
2022-11-15T07:06:07.565Z,2.20
2022-11-15T07:08:35.697Z,2.25
2022-11-15T07:11:04.760Z,2.55
2022-11-15T07:13:36.693Z,2.15
2022-11-15T07:16:08.220Z,2.75
2022-11-15T07:18:36.588Z,2.10
2022-11-15T07:21:04.790Z,2.22
2022-11-15T07:23:32.061Z,2.38
2022-11-15T07:25:59.746Z,2.38
2022-11-15T07:28:29.870Z,1.90
2022-11-15T07:30:56.940Z,2.47
2022-11-15T07:33:24.000Z,1.98
2022-11-15T07:35:50.872Z,2.05
2022-11-15T07:38:21.623Z,2.10
2022-11-15T07:40:49.783Z,2.40
2022-11-15T07:43:16.597Z,2.20
2022-11-15T07:45:44.790Z,2.30
2022-11-15T07:48:11.951Z,2.10
2022-11-15T07:50:43.170Z,2.85
2022-11-15T07:53:11.359Z,2.80
2022-11-15T07:55:38.650Z,2.83
2022-11-15T07:58:07.132Z,2.10
2022-11-15T08:00:34.694Z,1.65
2022-11-15T08:03:05.976Z,1.85
2022-11-15T08:05:33.609Z,1.92
2022-11-15T08:08:00.576Z,9.77
2022-11-15T08:10:28.485Z,64.30
2022-11-15T08:13:03.498Z,50.45
2022-11-15T08:15:30.840Z,44.65
2022-11-15T08:17:59.456Z,41.58
2022-11-15T08:20:27.433Z,35.70
2022-11-15T08:22:54.295Z,26.27
2022-11-15T08:25:21.163Z,21.92
2022-11-15T08:27:48.013Z,19.23
2022-11-15T08:30:17.083Z,16.42
2022-11-15T08:32:44.617Z,15.77
2022-11-15T08:35:11.489Z,14.15
2022-11-15T08:37:38.754Z,13.23
2022-11-15T08:40:06.554Z,12.07
2022-11-15T08:42:33.480Z,12.30
2022-11-15T08:45:00.525Z,11.93
2022-11-15T08:47:27.523Z,11.52
2022-11-15T08:49:54.395Z,10.43
2022-11-15T08:52:21.250Z,10.88
2022-11-15T08:54:48.200Z,10.13
2022-11-15T08:57:15.276Z,9.95
2022-11-15T08:59:42.128Z,9.63
2022-11-15T09:02:13.720Z,9.43
2022-11-15T09:04:42.570Z,9.30
2022-11-15T09:07:10.824Z,8.47
2022-11-15T09:09:37.696Z,8.60
2022-11-15T09:12:05.531Z,9.20
2022-11-15T09:14:32.811Z,27.77
2022-11-15T09:16:59.657Z,64.20
2022-11-15T09:19:26.562Z,56.65
2022-11-15T09:21:53.589Z,42.83
2022-11-15T09:24:20.464Z,35.70
2022-11-15T09:26:47.329Z,30.65
2022-11-15T09:29:14.216Z,26.80
2022-11-15T09:31:41.035Z,23.85
2022-11-15T09:34:07.896Z,22.30
2022-11-15T09:36:34.763Z,21.02
2022-11-15T09:39:01.662Z,19.20
2022-11-15T09:42:03.338Z,18.67
2022-11-15T09:44:46.238Z,17.98
2022-11-15T09:47:34.785Z,16.85
2022-11-15T09:50:08.190Z,16.73
2022-11-15T09:52:36.406Z,15.45
2022-11-15T09:55:03.297Z,15.07
2022-11-15T09:57:34.523Z,14.10
2022-11-15T10:03:26.506Z,12.75
2022-11-15T10:05:57.792Z,12.10
2022-11-15T10:08:47.962Z,11.82
2022-11-15T10:11:36.604Z,12.57
2022-11-15T10:14:14.492Z,13.02
2022-11-15T10:16:53.735Z,10.82
2022-11-15T10:19:43.624Z,10.55
2022-11-15T10:22:16.308Z,9.82
2022-11-15T10:24:44.864Z,11.27
2022-11-15T10:27:14.489Z,36.08
2022-11-15T10:29:49.586Z,30.13
2022-11-15T10:32:21.599Z,25.42
2022-11-15T10:34:50.264Z,21.05
2022-11-15T10:37:30.204Z,19.02
2022-11-15T10:40:13.998Z,16.95
2022-11-15T10:42:40.814Z,15.23
2022-11-15T10:45:28.762Z,14.85
2022-11-15T10:48:17.391Z,13.52
2022-11-15T10:50:48.014Z,12.57
2022-11-15T10:53:20.831Z,11.82
2022-11-15T10:58:42.580Z,12.18
2022-11-15T11:01:21.452Z,11.40
2022-11-15T11:04:03.339Z,11.38
2022-11-15T11:06:30.713Z,43.55
2022-11-15T11:09:03.009Z,59.75
2022-11-15T11:11:51.984Z,48.72
2022-11-15T11:14:28.206Z,40.78
2022-11-15T11:17:00.716Z,35.50
2022-11-15T11:20:05.745Z,30.58
2022-11-15T11:22:32.840Z,30.45
2022-11-15T11:25:20.720Z,27.35
2022-11-15T11:28:32.705Z,28.90
2022-11-15T11:31:14.557Z,24.67
2022-11-15T11:33:50.102Z,24.80
2022-11-15T11:36:41.893Z,20.30
2022-11-15T11:39:35.069Z,18.92
2022-11-15T11:43:00.458Z,18.38
2022-11-15T11:45:53.360Z,17.38
2022-11-15T11:48:25.710Z,16.08
2022-11-15T11:50:53.793Z,16.05
2022-11-15T11:53:47.815Z,15.98
2022-11-15T11:56:30.815Z,62.58
2022-11-15T11:59:05.493Z,63.20
2022-11-15T12:01:44.632Z,50.72
2022-11-15T12:04:36.290Z,41.10
2022-11-15T12:07:18.401Z,33.83
2022-11-15T12:09:59.981Z,33.15
2022-11-15T12:13:07.684Z,29.65
2022-11-15T12:15:40.726Z,25.92
2022-11-15T12:18:12.761Z,35.40
2022-11-15T12:20:43.848Z,25.00
2022-11-15T12:23:21.674Z,23.33
2022-11-15T12:26:13.692Z,24.80
2022-11-15T12:29:04.544Z,19.85
2022-11-15T12:34:07.522Z,20.92
2022-11-15T12:36:40.704Z,18.05
2022-11-15T12:39:10.043Z,16.73
2022-11-15T12:41:45.674Z,17.25
2022-11-15T12:44:14.308Z,16.20
2022-11-15T12:46:41.540Z,18.38
2022-11-15T12:49:26.747Z,16.50
2022-11-15T12:51:59.463Z,15.57
2022-11-15T12:54:27.565Z,15.48
2022-11-15T12:57:09.374Z,14.43
2022-11-15T13:00:03.488Z,15.05
2022-11-15T13:02:40.799Z,14.05
2022-11-15T13:05:36.885Z,13.40
2022-11-15T13:08:03.801Z,13.27
2022-11-15T13:10:34.664Z,13.07
2022-11-15T13:13:05.523Z,13.27
2022-11-15T13:15:42.868Z,10.65
2022-11-15T13:18:28.525Z,13.07
2022-11-15T13:21:00.926Z,15.77
2022-11-15T13:23:29.212Z,12.88
2022-11-15T13:26:17.675Z,75.40
2022-11-15T13:28:50.589Z,61.42
2022-11-15T13:31:27.574Z,53.13
2022-11-15T13:34:00.876Z,46.58
2022-11-15T13:36:30.973Z,40.08
2022-11-15T13:39:00.610Z,32.97
2022-11-15T13:41:32.817Z,30.35
2022-11-15T13:44:01.174Z,27.42
2022-11-15T13:46:31.238Z,25.88
2022-11-15T13:49:03.971Z,24.20
2022-11-15T13:51:45.153Z,24.08
2022-11-15T13:54:29.037Z,23.17
2022-11-15T13:57:03.495Z,21.40
2022-11-15T13:59:38.465Z,20.73
2022-11-15T14:02:14.674Z,19.55
2022-11-15T14:04:51.087Z,64.45
2022-11-15T14:07:26.582Z,84.90
2022-11-15T14:09:53.558Z,65.22
2022-11-15T14:12:25.322Z,51.00
2022-11-15T14:14:53.043Z,44.83
2022-11-15T14:17:45.731Z,38.20
2022-11-15T14:20:36.543Z,34.83
2022-11-15T14:23:20.577Z,32.08
2022-11-15T14:26:00.512Z,32.53
2022-11-15T14:28:27.429Z,31.10
2022-11-15T14:30:56.747Z,29.30
2022-11-15T14:33:25.472Z,28.48
2022-11-15T14:35:53.489Z,28.25
2022-11-15T14:38:20.631Z,26.48
2022-11-15T14:40:47.564Z,25.27
2022-11-15T14:43:14.789Z,25.60
2022-11-15T14:45:42.057Z,24.08
2022-11-15T14:48:09.346Z,22.88
2022-11-15T14:50:36.791Z,22.60
2022-11-15T14:53:04.391Z,22.08
2022-11-15T14:55:36.985Z,20.90
2022-11-15T14:58:05.062Z,20.42
2022-11-15T15:00:35.268Z,21.33
2022-11-15T15:03:02.818Z,20.58
2022-11-15T15:05:35.314Z,19.65
2022-11-15T15:08:02.417Z,18.58
2022-11-15T15:10:40.009Z,18.33
2022-11-15T15:13:22.377Z,18.67
2022-11-15T15:15:50.424Z,18.95
2022-11-15T15:18:18.220Z,17.20
2022-11-15T15:20:46.875Z,34.67
2022-11-15T15:23:18.781Z,22.02
2022-11-15T15:25:47.075Z,19.80
2022-11-15T15:28:14.391Z,25.20
2022-11-15T15:30:41.578Z,16.88
2022-11-15T15:33:08.472Z,20.67
2022-11-15T15:35:36.127Z,14.63
2022-11-15T15:38:03.343Z,17.10
2022-11-15T15:40:32.511Z,22.15
2022-11-15T15:42:59.941Z,15.10
2022-11-15T15:45:28.547Z,14.93
2022-11-15T15:47:55.490Z,15.43
2022-11-15T15:50:33.067Z,14.02
2022-11-15T15:53:03.167Z,13.77
2022-11-15T15:55:30.694Z,13.05
2022-11-15T15:57:57.652Z,13.93
2022-11-15T16:00:25.865Z,13.73
2022-11-15T16:02:53.664Z,13.00
2022-11-15T16:05:20.652Z,12.38
2022-11-15T16:07:48.566Z,12.75
2022-11-15T16:10:20.287Z,12.32
2022-11-15T16:12:48.040Z,12.02
2022-11-15T16:15:15.073Z,10.80
2022-11-15T16:17:56.489Z,11.27
2022-11-15T16:20:45.368Z,11.13
2022-11-15T16:23:14.993Z,11.53
2022-11-15T16:25:50.925Z,10.95
2022-11-15T16:28:20.429Z,11.10
2022-11-15T16:30:49.994Z,9.55
2022-11-15T16:33:21.279Z,9.90
2022-11-15T16:35:48.924Z,13.23
2022-11-15T16:38:16.610Z,11.70
2022-11-15T16:40:43.679Z,10.70
2022-11-15T16:43:11.185Z,12.48
2022-11-15T16:45:38.197Z,10.35
2022-11-15T16:48:05.097Z,11.43
2022-11-15T16:50:39.849Z,9.57
2022-11-15T16:53:07.033Z,10.88
2022-11-15T16:55:33.862Z,9.55
2022-11-15T16:58:01.925Z,9.32
2022-11-15T17:00:28.894Z,9.07
2022-11-15T17:02:56.283Z,8.52
2022-11-15T17:05:24.459Z,9.02
2022-11-15T17:07:54.277Z,8.75
2022-11-15T17:12:49.174Z,8.57
2022-11-15T17:15:16.500Z,8.45
2022-11-15T17:17:43.602Z,8.07
2022-11-15T17:20:18.355Z,8.43
2022-11-15T17:22:47.213Z,7.95
2022-11-15T17:25:14.207Z,7.67
2022-11-15T17:27:41.075Z,8.85
2022-11-15T17:30:08.696Z,8.18
2022-11-15T17:32:38.719Z,8.20
2022-11-15T17:35:15.040Z,7.00
2022-11-15T17:37:42.511Z,6.93
2022-11-15T17:40:09.963Z,8.93
2022-11-15T17:42:36.880Z,7.25
2022-11-15T17:45:09.320Z,6.85
2022-11-15T17:47:37.324Z,7.30
2022-11-15T17:50:04.840Z,7.30
2022-11-15T17:52:31.702Z,7.10
2022-11-15T17:54:58.521Z,7.32
2022-11-15T17:57:25.396Z,6.30
2022-11-15T17:59:52.496Z,8.18
2022-11-15T18:02:19.560Z,7.55
2022-11-15T18:04:46.460Z,6.40
2022-11-15T18:07:14.195Z,6.53
2022-11-15T18:09:44.071Z,8.93
2022-11-15T18:12:11.936Z,6.70
2022-11-15T18:14:39.167Z,11.00
2022-11-15T18:17:06.112Z,10.65
2022-11-15T18:19:33.012Z,22.95
2022-11-15T18:22:00.950Z,29.13
2022-11-15T18:24:30.151Z,27.60
2022-11-15T18:26:57.983Z,30.95
2022-11-15T18:29:25.145Z,27.58
2022-11-15T18:31:55.743Z,26.45
2022-11-15T18:34:28.806Z,28.65
2022-11-15T18:36:55.797Z,31.92
2022-11-15T18:39:22.678Z,28.77
2022-11-15T18:41:49.553Z,31.23
2022-11-15T18:44:17.182Z,26.73
2022-11-15T18:46:47.317Z,22.98
2022-11-15T18:49:16.572Z,20.63
2022-11-15T18:51:43.859Z,20.27
2022-11-15T18:54:12.101Z,30.42
2022-11-15T18:56:39.166Z,22.27
2022-11-15T18:59:06.525Z,25.05
2022-11-15T19:01:38.296Z,56.00
2022-11-15T19:04:25.458Z,39.63
2022-11-15T19:06:53.508Z,35.03
2022-11-15T19:09:20.700Z,48.25
2022-11-15T19:11:48.971Z,35.05
2022-11-15T19:14:17.489Z,31.95
2022-11-15T19:16:52.453Z,29.55
2022-11-15T19:19:24.943Z,33.08
2022-11-15T19:21:52.434Z,29.35
2022-11-15T19:24:19.575Z,28.48
2022-11-15T19:26:47.058Z,24.67
2022-11-15T19:29:14.212Z,23.63
2022-11-15T19:31:42.057Z,27.20
2022-11-15T19:34:09.371Z,21.98
2022-11-15T19:36:43.986Z,23.50
2022-11-15T19:39:13.221Z,20.05
2022-11-15T19:41:42.584Z,19.67
2022-11-15T19:44:10.635Z,16.48
2022-11-15T19:46:38.381Z,20.05
2022-11-15T19:49:07.945Z,16.58
2022-11-15T19:51:34.757Z,18.40
2022-11-15T19:54:06.433Z,14.32
2022-11-15T19:56:34.796Z,17.38
2022-11-15T19:59:02.564Z,14.98
2022-11-15T20:01:33.071Z,14.70
2022-11-15T20:04:00.770Z,15.50
2022-11-15T20:06:33.237Z,13.65
2022-11-15T20:09:00.470Z,13.63
2022-11-15T20:11:27.629Z,14.43
2022-11-15T20:13:58.867Z,11.13
2022-11-15T20:16:25.979Z,12.45
2022-11-15T20:18:53.393Z,12.57
2022-11-15T20:21:20.763Z,12.30
2022-11-15T20:23:53.376Z,12.63
2022-11-15T20:26:20.837Z,11.57
2022-11-15T20:28:48.221Z,11.20
2022-11-15T20:31:15.790Z,10.88
2022-11-15T20:33:42.630Z,11.15
2022-11-15T20:36:14.439Z,15.40
2022-11-15T20:38:41.482Z,11.73
2022-11-15T20:41:10.737Z,10.98
2022-11-15T20:43:37.603Z,10.68
2022-11-15T20:46:04.988Z,10.05
2022-11-15T20:48:32.420Z,10.07
2022-11-15T20:51:12.157Z,10.20
2022-11-15T20:53:39.122Z,8.48
2022-11-15T20:56:11.469Z,9.00
2022-11-15T20:58:38.532Z,10.25
2022-11-15T21:01:07.082Z,9.52
2022-11-15T21:03:34.655Z,8.70
2022-11-15T21:06:01.786Z,8.13
2022-11-15T21:08:28.766Z,8.98
2022-11-15T21:11:14.183Z,8.43
2022-11-15T21:13:41.024Z,8.05
2022-11-15T21:16:08.347Z,8.30
2022-11-15T21:18:35.592Z,10.90
2022-11-15T21:21:07.488Z,9.63
2022-11-15T21:23:34.357Z,7.38
2022-11-15T21:26:01.220Z,7.15
2022-11-15T21:28:28.033Z,6.47
2022-11-15T21:30:59.465Z,7.43
2022-11-15T21:33:29.959Z,7.05
2022-11-15T21:35:57.971Z,6.60
2022-11-15T21:38:25.145Z,7.43
2022-11-15T21:40:53.042Z,6.72
2022-11-15T21:43:20.335Z,6.55
2022-11-15T21:45:57.603Z,6.32
2022-11-15T21:48:24.646Z,31.10
2022-11-15T21:50:59.275Z,30.77
2022-11-15T21:53:26.808Z,26.25
2022-11-15T21:55:53.739Z,24.35
2022-11-15T21:58:21.623Z,22.67
2022-11-15T22:01:07.438Z,20.08
2022-11-15T22:03:34.508Z,19.38
2022-11-15T22:06:01.409Z,18.17
2022-11-15T22:08:28.507Z,15.32
2022-11-15T22:10:56.835Z,15.35
2022-11-15T22:13:24.723Z,13.63
2022-11-15T22:15:53.514Z,13.27
2022-11-15T22:18:26.170Z,12.77
2022-11-15T22:21:00.861Z,12.45
2022-11-15T22:23:29.258Z,11.77
2022-11-15T22:25:56.203Z,10.55
2022-11-15T22:28:23.566Z,10.45
2022-11-15T22:30:52.572Z,9.60
2022-11-15T22:33:21.882Z,9.38
2022-11-15T22:35:48.997Z,9.60
2022-11-15T22:38:16.069Z,10.60
2022-11-15T22:40:43.708Z,8.48
2022-11-15T22:43:13.045Z,9.02
2022-11-15T22:45:50.569Z,7.82
2022-11-15T22:48:18.025Z,8.40
2022-11-15T22:50:45.393Z,7.97
2022-11-15T22:53:12.389Z,8.75
2022-11-15T22:55:40.488Z,23.40
2022-11-15T22:58:08.813Z,21.77
2022-11-15T23:00:36.160Z,17.55
2022-11-15T23:03:03.605Z,14.48
2022-11-15T23:05:30.563Z,13.50
2022-11-15T23:07:57.965Z,12.20
2022-11-15T23:10:43.568Z,11.85
2022-11-15T23:13:16.226Z,10.95
2022-11-15T23:16:04.038Z,10.38
2022-11-15T23:18:34.596Z,9.18
2022-11-15T23:21:12.264Z,9.98
2022-11-15T23:23:39.733Z,8.95
2022-11-15T23:26:07.086Z,8.77
2022-11-15T23:28:35.083Z,8.00
2022-11-15T23:31:22.713Z,14.98
2022-11-15T23:33:58.675Z,17.30
2022-11-15T23:36:29.371Z,14.95
2022-11-15T23:38:56.681Z,13.18
2022-11-15T23:41:24.073Z,11.82
2022-11-15T23:43:51.902Z,10.38
2022-11-15T23:46:19.183Z,10.98
2022-11-15T23:48:45.992Z,10.13
2022-11-15T23:51:12.852Z,9.82
2022-11-15T23:53:39.728Z,9.40
2022-11-15T23:56:10.160Z,9.13
2022-11-15T23:58:37.279Z,9.20
